createdAt,value
2023-01-19T00:00:33.949Z,2.01
2023-01-19T00:01:37.007Z,2.01
2023-01-19T00:02:39.046Z,2.04
2023-01-19T00:03:42.332Z,2.05
2023-01-19T00:04:45.316Z,2.06
2023-01-19T00:05:47.326Z,2.07
2023-01-19T00:06:50.289Z,2.09
2023-01-19T00:07:52.230Z,2.09
2023-01-19T00:08:55.064Z,2.10
2023-01-19T00:09:57.106Z,2.12
2023-01-19T00:11:00.093Z,2.12
2023-01-19T00:12:03.036Z,2.09
2023-01-19T00:13:04.959Z,2.08
2023-01-19T00:14:07.899Z,2.09
2023-01-19T00:15:10.947Z,2.09
2023-01-19T00:16:17.474Z,2.11
2023-01-19T00:17:19.418Z,2.06
2023-01-19T00:18:22.388Z,2.06
2023-01-19T00:19:24.341Z,2.05
2023-01-19T00:20:27.190Z,2.05
2023-01-19T00:21:30.027Z,2.05
2023-01-19T00:22:31.953Z,2.06
2023-01-19T00:23:34.932Z,2.06
2023-01-19T00:24:36.777Z,2.06
2023-01-19T00:25:42.599Z,2.06
2023-01-19T00:26:44.689Z,2.06
2023-01-19T00:27:49.473Z,2.06
2023-01-19T00:28:53.048Z,2.05
2023-01-19T00:29:54.966Z,2.04
2023-01-19T00:30:57.800Z,2.05
2023-01-19T00:32:01.519Z,2.06
2023-01-19T00:33:05.186Z,2.06
2023-01-19T00:34:08.532Z,2.10
2023-01-19T00:35:10.589Z,2.07
2023-01-19T00:36:13.435Z,2.07
2023-01-19T00:37:16.353Z,2.08
2023-01-19T00:38:19.251Z,2.11
2023-01-19T00:39:21.160Z,2.12
2023-01-19T00:40:24.136Z,2.12
2023-01-19T00:41:41.293Z,2.11
2023-01-19T00:42:45.284Z,2.12
2023-01-19T00:43:47.222Z,2.12
2023-01-19T00:44:50.072Z,2.12
2023-01-19T00:45:51.965Z,2.14
2023-01-19T00:46:54.925Z,2.14
2023-01-19T00:47:58.194Z,2.14
2023-01-19T00:49:01.079Z,2.14
2023-01-19T00:50:03.029Z,2.15
2023-01-19T00:51:06.338Z,2.15
2023-01-19T00:52:08.252Z,2.14
2023-01-19T00:53:11.175Z,2.13
2023-01-19T00:54:13.103Z,2.14
2023-01-19T00:55:17.866Z,2.13
2023-01-19T00:56:19.807Z,2.13
2023-01-19T00:57:23.487Z,2.11
2023-01-19T00:58:25.472Z,2.13
2023-01-19T00:59:28.592Z,2.11
2023-01-19T01:00:31.880Z,2.12
2023-01-19T01:01:46.110Z,2.09
2023-01-19T01:02:50.989Z,2.10
2023-01-19T01:03:55.903Z,2.09
2023-01-19T01:05:02.765Z,2.09
2023-01-19T01:06:08.375Z,2.10
2023-01-19T01:07:10.308Z,2.10
2023-01-19T01:08:13.291Z,2.10
2023-01-19T01:09:15.164Z,2.10
2023-01-19T01:10:20.291Z,2.09
2023-01-19T01:11:22.263Z,2.10
2023-01-19T01:12:25.163Z,2.11
2023-01-19T01:13:28.599Z,2.10
2023-01-19T01:14:30.912Z,2.11
2023-01-19T01:15:34.713Z,2.11
2023-01-19T01:16:36.723Z,2.11
2023-01-19T01:17:46.463Z,2.12
2023-01-19T01:18:48.335Z,2.11
2023-01-19T01:19:52.744Z,2.12
2023-01-19T01:21:01.165Z,2.10
2023-01-19T01:22:04.076Z,2.09
2023-01-19T01:23:06.017Z,2.10
2023-01-19T01:24:10.600Z,2.12
2023-01-19T01:25:13.602Z,2.10
2023-01-19T01:26:16.517Z,2.09
2023-01-19T01:27:18.407Z,2.12
2023-01-19T01:28:21.281Z,2.10
2023-01-19T01:29:23.408Z,2.10
2023-01-19T01:30:26.482Z,2.10
2023-01-19T01:31:28.901Z,2.10
2023-01-19T01:32:31.815Z,2.11
2023-01-19T01:33:41.059Z,2.10
2023-01-19T01:34:44.666Z,2.11
2023-01-19T01:35:48.569Z,2.09
2023-01-19T01:36:51.436Z,2.09
2023-01-19T01:37:53.365Z,2.09
2023-01-19T01:38:56.301Z,2.08
2023-01-19T01:39:58.156Z,2.08
2023-01-19T01:41:01.141Z,2.07
2023-01-19T01:42:03.862Z,2.07
2023-01-19T01:43:12.039Z,2.06
2023-01-19T01:44:50.034Z,2.07
2023-01-19T01:45:54.953Z,2.08
2023-01-19T01:46:57.182Z,2.07
2023-01-19T01:48:05.566Z,2.07
2023-01-19T01:49:13.936Z,2.07
2023-01-19T01:50:19.696Z,2.07
2023-01-19T01:51:29.313Z,2.06
2023-01-19T01:52:33.744Z,2.06
2023-01-19T01:53:38.531Z,2.06
2023-01-19T01:54:40.791Z,2.05
2023-01-19T01:55:50.193Z,2.05
2023-01-19T01:56:55.288Z,2.04
2023-01-19T01:58:01.958Z,2.05
2023-01-19T01:59:07.897Z,2.04
2023-01-19T02:00:12.361Z,2.04
2023-01-19T02:01:41.384Z,2.05
2023-01-19T02:02:54.833Z,2.03
2023-01-19T02:03:58.625Z,2.03
2023-01-19T02:05:05.604Z,2.02
2023-01-19T02:06:08.446Z,2.02
2023-01-19T02:07:33.084Z,2.02
2023-01-19T02:08:57.869Z,2.02
2023-01-19T02:10:18.121Z,2.00
2023-01-19T02:11:38.968Z,1.99
2023-01-19T02:12:59.710Z,2.00
2023-01-19T02:14:05.116Z,1.99
2023-01-19T02:15:15.125Z,1.99
2023-01-19T02:16:18.775Z,1.98
2023-01-19T02:17:21.200Z,1.97
2023-01-19T02:18:26.642Z,1.98
2023-01-19T02:19:34.386Z,1.98
2023-01-19T02:20:38.632Z,1.99
2023-01-19T02:21:51.065Z,1.98
2023-01-19T02:23:01.672Z,1.99
2023-01-19T02:24:07.209Z,1.98
2023-01-19T02:25:10.646Z,1.98
2023-01-19T02:26:16.132Z,1.98
2023-01-19T02:27:20.010Z,1.98
2023-01-19T02:28:21.926Z,1.98
2023-01-19T02:29:27.416Z,1.98
2023-01-19T02:30:29.831Z,1.99
2023-01-19T02:31:35.063Z,1.99
2023-01-19T02:32:37.161Z,1.98
2023-01-19T02:33:40.165Z,1.98
2023-01-19T02:34:42.086Z,1.98
2023-01-19T02:35:46.248Z,1.98
2023-01-19T02:36:52.650Z,1.98
2023-01-19T02:37:55.610Z,1.98
2023-01-19T02:39:00.154Z,1.98
2023-01-19T02:40:07.387Z,1.97
2023-01-19T02:41:12.301Z,1.97
2023-01-19T02:42:20.206Z,1.97
2023-01-19T02:43:23.939Z,1.97
2023-01-19T02:44:28.963Z,1.97
2023-01-19T02:45:32.965Z,1.95
2023-01-19T02:46:35.409Z,1.96
2023-01-19T02:47:39.158Z,1.95
2023-01-19T02:48:42.255Z,1.95
2023-01-19T02:49:44.168Z,1.94
2023-01-19T02:50:50.045Z,1.94
2023-01-19T02:51:52.345Z,1.94
2023-01-19T02:53:03.097Z,1.94
2023-01-19T02:54:17.433Z,1.93
2023-01-19T02:55:29.423Z,1.93
2023-01-19T02:56:50.798Z,1.93
2023-01-19T02:58:01.984Z,1.93
2023-01-19T02:59:13.351Z,1.92
2023-01-19T03:00:24.890Z,1.92
2023-01-19T03:01:38.113Z,1.91
2023-01-19T03:02:51.967Z,1.91
2023-01-19T03:03:59.858Z,1.91
2023-01-19T03:05:17.156Z,1.92
2023-01-19T03:06:31.583Z,1.92
2023-01-19T03:07:45.533Z,1.86
2023-01-19T03:08:53.452Z,1.86
2023-01-19T03:10:04.735Z,1.86
2023-01-19T03:11:10.285Z,1.85
2023-01-19T03:12:23.140Z,1.85
2023-01-19T03:13:33.028Z,1.86
2023-01-19T03:14:42.607Z,1.86
2023-01-19T03:15:48.811Z,1.85
2023-01-19T03:16:55.940Z,1.85
2023-01-19T03:18:02.344Z,1.85
2023-01-19T03:19:09.255Z,1.86
2023-01-19T03:20:14.007Z,1.85
2023-01-19T03:21:19.531Z,1.84
2023-01-19T03:22:25.241Z,1.85
2023-01-19T03:23:32.283Z,1.84
2023-01-19T03:24:37.968Z,1.84
2023-01-19T03:25:43.715Z,1.84
2023-01-19T03:26:52.816Z,1.84
2023-01-19T03:27:58.598Z,1.83
2023-01-19T03:29:02.686Z,1.83
2023-01-19T03:30:09.266Z,1.83
2023-01-19T03:31:14.186Z,1.82
2023-01-19T03:32:21.728Z,1.82
2023-01-19T03:33:27.367Z,1.81
2023-01-19T03:34:30.754Z,1.82
2023-01-19T03:35:36.968Z,1.81
2023-01-19T03:36:46.007Z,1.80
2023-01-19T03:37:50.758Z,1.81
2023-01-19T03:38:55.796Z,1.80
2023-01-19T03:39:58.263Z,1.81
2023-01-19T03:41:04.005Z,1.81
2023-01-19T03:42:11.633Z,1.80
2023-01-19T03:43:16.747Z,1.79
2023-01-19T03:44:18.655Z,1.80
2023-01-19T03:45:22.682Z,1.78
2023-01-19T03:46:26.359Z,1.77
2023-01-19T03:47:29.731Z,1.76
2023-01-19T03:48:32.713Z,1.77
2023-01-19T03:49:37.753Z,1.77
2023-01-19T03:50:39.869Z,1.76
2023-01-19T03:51:42.848Z,1.76
2023-01-19T03:52:44.802Z,1.76
2023-01-19T03:53:47.656Z,1.76
2023-01-19T03:54:49.607Z,1.77
2023-01-19T03:55:54.126Z,1.76
2023-01-19T03:56:56.020Z,1.76
2023-01-19T03:58:00.275Z,1.77
2023-01-19T03:59:02.333Z,1.75
2023-01-19T04:00:06.565Z,1.75
2023-01-19T04:01:15.641Z,1.75
2023-01-19T04:02:18.588Z,1.76
2023-01-19T04:03:20.559Z,1.75
2023-01-19T04:04:23.454Z,1.75
2023-01-19T04:05:25.761Z,1.74
2023-01-19T04:06:28.648Z,1.74
2023-01-19T04:07:30.516Z,1.73
2023-01-19T04:08:33.559Z,1.74
2023-01-19T04:09:35.421Z,1.70
2023-01-19T04:10:38.368Z,1.73
2023-01-19T04:11:40.313Z,1.73
2023-01-19T04:12:43.206Z,1.74
2023-01-19T04:13:46.495Z,1.72
2023-01-19T04:14:49.722Z,1.73
2023-01-19T04:15:51.646Z,1.73
2023-01-19T04:16:54.728Z,1.73
2023-01-19T04:17:57.766Z,1.74
2023-01-19T04:19:00.680Z,1.73
2023-01-19T04:20:02.638Z,1.73
2023-01-19T04:21:08.416Z,1.72
2023-01-19T04:22:10.642Z,1.72
2023-01-19T04:23:13.676Z,1.73
2023-01-19T04:24:15.572Z,1.72
2023-01-19T04:25:18.407Z,1.72
2023-01-19T04:26:20.867Z,1.72
2023-01-19T04:27:23.862Z,1.72
2023-01-19T04:28:27.351Z,1.71
2023-01-19T04:29:32.946Z,1.70
2023-01-19T04:30:34.804Z,1.69
2023-01-19T04:31:37.880Z,1.65
2023-01-19T04:32:39.887Z,1.65
2023-01-19T04:33:42.760Z,1.64
2023-01-19T04:34:44.756Z,1.64
2023-01-19T04:35:48.151Z,1.64
2023-01-19T04:36:51.573Z,1.63
2023-01-19T04:37:53.507Z,1.63
2023-01-19T04:38:56.417Z,1.63
2023-01-19T04:39:58.345Z,1.61
2023-01-19T04:41:01.252Z,1.61
2023-01-19T04:42:03.281Z,1.61
2023-01-19T04:43:06.272Z,1.62
2023-01-19T04:44:08.207Z,1.60
2023-01-19T04:45:13.617Z,1.61
2023-01-19T04:46:15.568Z,1.60
2023-01-19T04:47:18.671Z,1.60
2023-01-19T04:48:20.658Z,1.61
2023-01-19T04:49:23.962Z,1.60
2023-01-19T04:50:25.893Z,1.58
2023-01-19T04:51:28.827Z,1.59
2023-01-19T04:52:35.065Z,1.60
2023-01-19T04:53:38.062Z,1.59
2023-01-19T04:54:40.032Z,1.58
2023-01-19T04:55:43.164Z,1.59
2023-01-19T04:56:45.100Z,1.58
2023-01-19T04:57:48.045Z,1.57
2023-01-19T04:58:49.957Z,1.58
2023-01-19T04:59:52.850Z,1.58
2023-01-19T05:00:56.227Z,1.58
2023-01-19T05:01:59.200Z,1.58
2023-01-19T05:03:01.942Z,1.59
2023-01-19T05:04:06.968Z,1.59
2023-01-19T05:05:09.813Z,1.59
2023-01-19T05:06:12.817Z,1.59
2023-01-19T05:07:14.772Z,1.59
2023-01-19T05:08:17.681Z,1.59
2023-01-19T05:09:19.601Z,1.59
2023-01-19T05:10:22.504Z,1.59
2023-01-19T05:11:24.543Z,1.60
2023-01-19T05:12:27.619Z,1.59
2023-01-19T05:13:30.619Z,1.59
2023-01-19T05:14:33.525Z,1.59
2023-01-19T05:15:35.479Z,1.58
2023-01-19T05:16:39.867Z,1.58
2023-01-19T05:17:42.051Z,1.58
2023-01-19T05:18:44.986Z,1.57
2023-01-19T05:19:48.782Z,1.56
2023-01-19T05:20:51.739Z,1.56
2023-01-19T05:21:55.949Z,1.56
2023-01-19T05:22:59.274Z,1.55
2023-01-19T05:24:01.679Z,1.54
2023-01-19T05:25:04.846Z,1.54
2023-01-19T05:26:07.983Z,1.54
2023-01-19T05:27:12.255Z,1.53
2023-01-19T05:28:15.295Z,1.54
2023-01-19T05:29:17.219Z,1.54
2023-01-19T05:30:20.304Z,1.54
2023-01-19T05:31:22.298Z,1.54
2023-01-19T05:32:27.450Z,1.53
2023-01-19T05:33:29.379Z,1.52
2023-01-19T05:34:32.263Z,1.51
2023-01-19T05:35:36.234Z,1.51
2023-01-19T05:36:39.734Z,1.50
2023-01-19T05:37:41.595Z,1.48
2023-01-19T05:38:44.523Z,1.48
2023-01-19T05:39:46.454Z,1.44
2023-01-19T05:40:49.390Z,1.43
2023-01-19T05:41:51.361Z,1.43
2023-01-19T05:42:54.315Z,1.43
2023-01-19T05:43:57.964Z,1.43
2023-01-19T05:45:00.821Z,1.43
2023-01-19T05:46:04.062Z,1.43
2023-01-19T05:47:06.985Z,1.42
2023-01-19T05:48:10.336Z,1.42
2023-01-19T05:49:13.387Z,1.42
2023-01-19T05:50:15.857Z,1.41
2023-01-19T05:51:18.720Z,1.45
2023-01-19T05:52:21.845Z,1.48
2023-01-19T05:53:24.680Z,1.48
2023-01-19T05:54:26.594Z,1.48
2023-01-19T05:55:30.094Z,1.50
2023-01-19T05:56:32.822Z,1.49
2023-01-19T05:57:35.698Z,1.50
2023-01-19T05:58:39.399Z,1.49
2023-01-19T05:59:42.295Z,1.48
2023-01-19T06:00:44.192Z,1.46
2023-01-19T06:01:47.165Z,1.45
2023-01-19T06:02:51.004Z,1.49
2023-01-19T06:03:55.528Z,1.54
2023-01-19T06:04:57.434Z,1.56
2023-01-19T06:06:01.203Z,1.57
2023-01-19T06:07:03.456Z,1.56
2023-01-19T06:08:06.982Z,1.57
2023-01-19T06:09:09.551Z,1.57
2023-01-19T06:10:12.863Z,1.55
2023-01-19T06:11:14.769Z,1.54
2023-01-19T06:12:17.560Z,1.54
2023-01-19T06:13:19.433Z,1.53
2023-01-19T06:14:22.352Z,1.52
2023-01-19T06:15:24.298Z,1.51
2023-01-19T06:16:27.173Z,1.48
2023-01-19T06:17:29.123Z,1.45
2023-01-19T06:18:32.022Z,1.45
2023-01-19T06:19:36.248Z,1.45
2023-01-19T06:20:38.678Z,1.44
2023-01-19T06:21:49.408Z,1.44
2023-01-19T06:22:52.007Z,1.44
2023-01-19T06:23:55.185Z,1.44
2023-01-19T06:24:57.105Z,1.44
2023-01-19T06:26:00.849Z,1.43
2023-01-19T06:27:02.798Z,1.42
2023-01-19T06:28:06.200Z,1.41
2023-01-19T06:29:10.743Z,1.41
2023-01-19T06:30:14.258Z,1.42
2023-01-19T06:31:17.196Z,1.41
2023-01-19T06:32:22.639Z,1.42
2023-01-19T06:33:26.150Z,1.42
2023-01-19T06:34:29.008Z,1.41
2023-01-19T06:35:33.385Z,1.40
2023-01-19T06:36:35.331Z,1.41
2023-01-19T06:37:38.345Z,1.41
2023-01-19T06:38:40.287Z,1.40
2023-01-19T06:39:45.341Z,1.41
2023-01-19T06:40:53.352Z,1.41
2023-01-19T06:41:57.351Z,1.41
2023-01-19T06:42:59.611Z,1.40
2023-01-19T06:44:04.574Z,1.37
2023-01-19T06:45:09.134Z,1.37
2023-01-19T06:46:12.125Z,1.37
2023-01-19T06:47:16.412Z,1.35
2023-01-19T06:48:20.352Z,1.35
2023-01-19T06:49:22.207Z,1.35
2023-01-19T06:50:25.498Z,1.34
2023-01-19T06:51:28.997Z,1.33
2023-01-19T06:52:31.918Z,1.33
2023-01-19T06:53:34.971Z,1.30
2023-01-19T06:54:39.692Z,1.30
2023-01-19T06:55:43.775Z,1.30
2023-01-19T06:56:46.958Z,1.28
2023-01-19T06:57:48.818Z,1.28
2023-01-19T06:58:53.079Z,1.26
2023-01-19T06:59:55.984Z,1.25
2023-01-19T07:01:04.987Z,1.23
2023-01-19T07:02:27.043Z,1.22
2023-01-19T07:03:30.626Z,1.21
2023-01-19T07:04:33.907Z,1.20
2023-01-19T07:05:37.337Z,1.20
2023-01-19T07:06:41.584Z,1.20
2023-01-19T07:07:45.418Z,1.20
2023-01-19T07:08:49.837Z,1.19
2023-01-19T07:09:54.126Z,1.19
2023-01-19T07:11:25.748Z,1.19
2023-01-19T07:12:24.378Z,1.19
2023-01-19T07:13:27.392Z,1.19
2023-01-19T07:14:34.302Z,1.19
2023-01-19T07:15:37.633Z,1.20
2023-01-19T07:16:40.713Z,1.19
2023-01-19T07:17:42.900Z,1.19
2023-01-19T07:18:45.953Z,1.18
2023-01-19T07:19:48.815Z,1.16
2023-01-19T07:20:50.801Z,1.16
2023-01-19T07:21:55.402Z,1.15
2023-01-19T07:22:57.827Z,1.14
2023-01-19T07:24:01.456Z,1.15
2023-01-19T07:25:04.818Z,1.14
2023-01-19T07:26:07.774Z,1.14
2023-01-19T07:27:11.610Z,1.14
2023-01-19T07:28:16.018Z,1.14
2023-01-19T07:29:18.043Z,1.14
2023-01-19T07:30:21.063Z,1.14
2023-01-19T07:31:25.098Z,1.14
2023-01-19T07:32:28.372Z,1.14
2023-01-19T07:33:30.300Z,1.13
2023-01-19T07:34:35.504Z,1.13
2023-01-19T07:35:38.579Z,1.12
2023-01-19T07:36:40.488Z,1.12
2023-01-19T07:37:44.800Z,1.12
2023-01-19T07:38:47.712Z,1.12
2023-01-19T07:39:51.888Z,1.10
2023-01-19T07:41:01.590Z,1.11
2023-01-19T07:42:04.539Z,1.11
2023-01-19T07:43:08.004Z,1.10
2023-01-19T07:44:11.061Z,1.09
2023-01-19T07:45:14.238Z,1.10
2023-01-19T07:46:17.167Z,1.09
2023-01-19T07:47:20.418Z,1.10
2023-01-19T07:48:23.278Z,1.08
2023-01-19T07:49:25.329Z,1.08
2023-01-19T07:50:29.477Z,1.08
2023-01-19T07:51:34.277Z,1.08
2023-01-19T07:52:36.253Z,1.09
2023-01-19T07:53:41.951Z,1.08
2023-01-19T07:54:45.204Z,1.07
2023-01-19T07:55:47.408Z,1.08
2023-01-19T07:56:50.322Z,1.08
2023-01-19T07:57:53.991Z,1.07
2023-01-19T07:58:57.699Z,1.07
2023-01-19T08:00:00.678Z,1.07
2023-01-19T08:01:08.893Z,1.07
2023-01-19T08:02:13.181Z,1.07
2023-01-19T08:03:17.679Z,1.07
2023-01-19T08:04:20.881Z,1.05
2023-01-19T08:05:23.534Z,1.05
2023-01-19T08:06:31.568Z,1.04
2023-01-19T08:07:33.947Z,1.05
2023-01-19T08:08:36.825Z,1.06
2023-01-19T08:09:40.170Z,1.08
2023-01-19T08:10:43.142Z,1.07
2023-01-19T08:11:46.108Z,1.08
2023-01-19T08:12:50.253Z,1.08
2023-01-19T08:13:52.541Z,1.09
2023-01-19T08:14:55.656Z,1.08
2023-01-19T08:15:58.669Z,1.08
2023-01-19T08:17:02.197Z,1.08
2023-01-19T08:18:05.858Z,1.07
2023-01-19T08:19:09.059Z,1.07
2023-01-19T08:20:13.017Z,1.08
2023-01-19T08:21:16.523Z,1.08
2023-01-19T08:22:21.892Z,1.09
2023-01-19T08:23:24.381Z,1.11
2023-01-19T08:24:29.047Z,1.10
2023-01-19T08:25:34.486Z,1.11
2023-01-19T08:26:37.454Z,1.11
2023-01-19T08:27:40.500Z,1.13
2023-01-19T08:28:42.428Z,1.13
2023-01-19T08:29:45.637Z,1.13
2023-01-19T08:30:54.188Z,1.14
2023-01-19T08:32:00.124Z,1.16
2023-01-19T08:33:04.348Z,1.17
2023-01-19T08:34:07.452Z,1.16
2023-01-19T08:35:10.844Z,1.16
2023-01-19T08:36:12.796Z,1.16
2023-01-19T08:37:15.836Z,1.17
2023-01-19T08:38:17.851Z,1.17
2023-01-19T08:39:20.703Z,1.18
2023-01-19T08:40:23.280Z,1.18
2023-01-19T08:41:28.481Z,1.18
2023-01-19T08:42:32.717Z,1.19
2023-01-19T08:43:35.470Z,1.20
2023-01-19T08:44:46.724Z,1.21
2023-01-19T08:45:56.507Z,1.22
2023-01-19T08:47:00.024Z,1.22
2023-01-19T08:48:03.581Z,1.22
2023-01-19T08:49:06.549Z,1.23
2023-01-19T08:50:10.796Z,1.23
2023-01-19T08:51:15.339Z,1.23
2023-01-19T08:52:17.357Z,1.23
2023-01-19T08:53:21.110Z,1.23
2023-01-19T08:54:24.424Z,1.22
2023-01-19T08:55:27.188Z,1.23
2023-01-19T08:56:31.621Z,1.23
2023-01-19T08:57:33.645Z,1.22
2023-01-19T08:58:36.616Z,1.23
2023-01-19T08:59:39.598Z,1.21
2023-01-19T09:00:42.179Z,1.21
2023-01-19T09:01:45.631Z,1.20
2023-01-19T09:02:48.307Z,1.21
2023-01-19T09:03:52.055Z,1.21
2023-01-19T09:04:53.996Z,1.21
2023-01-19T09:05:56.971Z,1.21
2023-01-19T09:06:58.915Z,1.22
2023-01-19T09:08:02.819Z,1.20
2023-01-19T09:09:05.247Z,1.22
2023-01-19T09:10:13.159Z,1.21
2023-01-19T09:11:17.203Z,1.21
2023-01-19T09:12:24.873Z,1.22
2023-01-19T09:13:27.225Z,1.21
2023-01-19T09:14:30.172Z,1.21
2023-01-19T09:15:34.018Z,1.18
2023-01-19T09:16:36.999Z,1.18
2023-01-19T09:17:39.649Z,1.19
2023-01-19T09:18:45.120Z,1.18
2023-01-19T09:19:47.571Z,1.20
2023-01-19T09:20:51.574Z,1.21
2023-01-19T09:21:54.967Z,1.21
2023-01-19T09:22:57.143Z,1.22
2023-01-19T09:24:01.816Z,1.22
2023-01-19T09:25:04.045Z,1.19
2023-01-19T09:26:07.880Z,1.18
2023-01-19T09:27:10.909Z,1.19
2023-01-19T09:28:17.603Z,1.19
2023-01-19T09:29:20.727Z,1.19
2023-01-19T09:30:22.661Z,1.19
2023-01-19T09:31:25.693Z,1.19
2023-01-19T09:32:27.864Z,1.18
2023-01-19T09:33:33.169Z,1.18
2023-01-19T09:34:36.190Z,1.19
2023-01-19T09:35:39.124Z,1.20
2023-01-19T09:36:43.230Z,1.21
2023-01-19T09:37:47.377Z,1.20
2023-01-19T09:38:53.213Z,1.23
2023-01-19T09:39:55.224Z,1.27
2023-01-19T09:41:04.036Z,1.28
2023-01-19T09:42:14.494Z,1.28
2023-01-19T09:43:29.888Z,1.28
2023-01-19T09:44:35.557Z,1.29
2023-01-19T09:45:48.251Z,1.29
2023-01-19T09:46:51.274Z,1.30
2023-01-19T09:47:55.279Z,1.31
2023-01-19T09:49:04.717Z,1.30
2023-01-19T09:50:21.907Z,1.31
2023-01-19T09:51:27.199Z,1.30
2023-01-19T09:52:32.768Z,1.31
2023-01-19T09:53:50.420Z,1.30
2023-01-19T09:54:56.503Z,1.31
2023-01-19T09:55:58.533Z,1.31
2023-01-19T09:57:01.487Z,1.26
2023-01-19T09:58:12.143Z,1.27
2023-01-19T09:59:21.885Z,1.27
2023-01-19T10:00:27.665Z,1.28
2023-01-19T10:01:48.130Z,1.26
2023-01-19T10:02:58.449Z,1.27
2023-01-19T10:04:30.509Z,1.27
2023-01-19T10:05:39.814Z,1.27
2023-01-19T10:06:42.688Z,1.26
2023-01-19T10:08:06.140Z,1.26
2023-01-19T10:09:16.078Z,1.28
2023-01-19T10:10:21.989Z,1.28
2023-01-19T10:11:51.571Z,1.29
2023-01-19T10:13:11.097Z,1.30
2023-01-19T10:14:20.890Z,1.31
2023-01-19T10:15:38.359Z,1.32
2023-01-19T10:16:52.072Z,1.32
2023-01-19T10:18:08.579Z,1.32
2023-01-19T10:19:22.889Z,1.34
2023-01-19T10:20:30.402Z,1.34
2023-01-19T10:21:40.734Z,1.34
2023-01-19T10:22:52.659Z,1.35
2023-01-19T10:23:59.830Z,1.35
2023-01-19T10:25:17.692Z,1.35
2023-01-19T10:26:24.563Z,1.35
2023-01-19T10:27:30.407Z,1.37
2023-01-19T10:28:32.783Z,1.36
2023-01-19T10:29:38.649Z,1.39
2023-01-19T10:30:45.225Z,1.37
2023-01-19T10:31:49.722Z,1.37
2023-01-19T10:32:52.933Z,1.38
2023-01-19T10:33:56.567Z,1.36
2023-01-19T10:34:59.929Z,1.38
2023-01-19T10:36:06.549Z,1.37
2023-01-19T10:37:23.645Z,1.37
2023-01-19T10:38:29.018Z,1.37
2023-01-19T10:39:37.361Z,1.39
2023-01-19T10:40:50.746Z,1.37
2023-01-19T10:41:55.045Z,1.39
2023-01-19T10:42:57.818Z,1.45
2023-01-19T10:44:02.668Z,1.46
2023-01-19T10:45:16.844Z,1.49
2023-01-19T10:46:25.811Z,1.49
2023-01-19T10:47:35.122Z,1.37
2023-01-19T10:48:42.040Z,1.38
2023-01-19T10:49:45.955Z,1.35
2023-01-19T10:51:01.836Z,1.36
2023-01-19T10:52:06.864Z,1.35
2023-01-19T10:53:20.883Z,1.37
2023-01-19T10:54:26.950Z,1.36
2023-01-19T10:55:31.080Z,1.36
2023-01-19T10:56:38.505Z,1.36
2023-01-19T10:57:45.310Z,1.36
2023-01-19T10:58:52.351Z,1.37
2023-01-19T10:59:57.861Z,1.37
2023-01-19T11:01:15.252Z,1.37
2023-01-19T11:02:20.783Z,1.38
2023-01-19T11:03:23.956Z,1.38
2023-01-19T11:04:30.128Z,1.37
2023-01-19T11:05:33.860Z,1.40
2023-01-19T11:06:36.871Z,1.40
2023-01-19T11:07:41.361Z,1.40
2023-01-19T11:08:45.949Z,1.41
2023-01-19T11:09:52.182Z,1.41
2023-01-19T11:10:59.055Z,1.43
2023-01-19T11:12:02.072Z,1.43
2023-01-19T11:13:12.622Z,1.43
2023-01-19T11:14:18.987Z,1.44
2023-01-19T11:15:24.826Z,1.44
2023-01-19T11:16:34.844Z,1.45
2023-01-19T11:17:38.082Z,1.44
2023-01-19T11:18:41.471Z,1.46
2023-01-19T11:19:47.327Z,1.46
2023-01-19T11:20:55.127Z,1.46
2023-01-19T11:22:16.172Z,1.48
2023-01-19T11:23:24.799Z,1.48
2023-01-19T11:24:27.869Z,1.48
2023-01-19T11:25:34.800Z,1.49
2023-01-19T11:26:42.689Z,1.50
2023-01-19T11:27:51.672Z,1.49
2023-01-19T11:28:56.162Z,1.49
2023-01-19T11:30:09.852Z,1.50
2023-01-19T11:31:21.241Z,1.51
2023-01-19T11:32:29.012Z,1.52
2023-01-19T11:33:38.588Z,1.51
2023-01-19T11:34:40.547Z,1.52
2023-01-19T11:35:43.478Z,1.53
2023-01-19T11:36:57.471Z,1.53
2023-01-19T11:38:07.857Z,1.53
2023-01-19T11:39:23.610Z,1.54
2023-01-19T11:40:26.533Z,1.54
2023-01-19T11:41:31.998Z,1.55
2023-01-19T11:42:37.204Z,1.55
2023-01-19T11:43:49.427Z,1.56
2023-01-19T11:45:00.261Z,1.56
2023-01-19T11:46:02.884Z,1.57
2023-01-19T11:47:13.376Z,1.57
2023-01-19T11:48:25.188Z,1.58
2023-01-19T11:49:38.573Z,1.58
2023-01-19T11:50:43.959Z,1.59
2023-01-19T11:51:57.653Z,1.59
2023-01-19T11:53:05.762Z,1.60
2023-01-19T11:54:20.221Z,1.61
2023-01-19T11:55:30.080Z,1.61
2023-01-19T11:56:33.010Z,1.62
2023-01-19T11:57:35.895Z,1.63
2023-01-19T11:58:40.922Z,1.63
2023-01-19T11:59:43.216Z,1.63
2023-01-19T12:00:50.891Z,1.63
2023-01-19T12:01:57.909Z,1.67
2023-01-19T12:03:06.639Z,1.68
2023-01-19T12:04:14.861Z,1.70
2023-01-19T12:05:20.262Z,1.75
2023-01-19T12:06:28.111Z,1.78
2023-01-19T12:07:35.342Z,1.76
2023-01-19T12:08:43.518Z,1.77
2023-01-19T12:09:47.534Z,1.78
2023-01-19T12:10:53.980Z,1.79
2023-01-19T12:12:03.961Z,1.79
2023-01-19T12:13:13.262Z,1.80
2023-01-19T12:14:20.474Z,1.81
2023-01-19T12:15:27.257Z,1.82
2023-01-19T12:16:32.724Z,1.82
2023-01-19T12:17:41.583Z,1.82
2023-01-19T12:18:48.600Z,1.83
2023-01-19T12:20:00.418Z,1.81
2023-01-19T12:21:04.331Z,1.81
2023-01-19T12:22:07.790Z,1.81
2023-01-19T12:23:25.214Z,1.84
2023-01-19T12:24:33.993Z,1.82
2023-01-19T12:25:48.931Z,1.83
2023-01-19T12:26:56.637Z,1.83
2023-01-19T12:28:00.782Z,1.79
2023-01-19T12:29:08.924Z,1.75
2023-01-19T12:30:18.692Z,1.74
2023-01-19T12:31:24.319Z,1.75
2023-01-19T12:32:35.213Z,1.74
2023-01-19T12:33:39.499Z,1.74
2023-01-19T12:34:43.767Z,1.73
2023-01-19T12:36:00.715Z,1.74
2023-01-19T12:37:05.490Z,1.74
2023-01-19T12:38:25.509Z,1.74
2023-01-19T12:39:28.484Z,1.74
2023-01-19T12:40:35.143Z,1.74
2023-01-19T12:41:40.479Z,1.76
2023-01-19T12:42:45.644Z,1.74
2023-01-19T12:43:49.536Z,1.76
2023-01-19T12:45:06.767Z,1.76
2023-01-19T12:46:20.877Z,1.75
2023-01-19T12:47:24.570Z,1.75
2023-01-19T12:48:28.573Z,1.76
2023-01-19T12:49:34.161Z,1.74
2023-01-19T12:50:39.304Z,1.72
2023-01-19T12:51:42.823Z,1.71
2023-01-19T12:52:51.707Z,1.69
2023-01-19T12:53:59.554Z,1.69
2023-01-19T12:55:08.019Z,1.68
2023-01-19T12:56:11.064Z,1.68
2023-01-19T12:57:20.925Z,1.70
2023-01-19T12:58:26.363Z,1.70
2023-01-19T12:59:30.902Z,1.71
2023-01-19T13:00:39.716Z,1.69
2023-01-19T13:01:41.845Z,1.72
2023-01-19T13:02:47.272Z,1.72
2023-01-19T13:04:06.692Z,1.73
2023-01-19T13:05:23.019Z,1.72
2023-01-19T13:06:55.657Z,1.73
2023-01-19T13:08:22.858Z,1.73
2023-01-19T13:09:30.474Z,1.73
2023-01-19T13:11:19.676Z,1.72
2023-01-19T13:12:26.630Z,1.72
2023-01-19T13:13:30.058Z,1.68
2023-01-19T13:14:38.316Z,1.64
2023-01-19T13:15:40.282Z,1.62
2023-01-19T13:17:05.643Z,1.56
2023-01-19T13:18:10.420Z,1.55
2023-01-19T13:19:18.154Z,1.53
2023-01-19T13:20:27.482Z,1.53
2023-01-19T13:21:31.927Z,1.53
2023-01-19T13:23:16.173Z,1.53
2023-01-19T13:24:22.663Z,1.54
2023-01-19T13:25:30.077Z,1.56
2023-01-19T13:26:35.843Z,1.57
2023-01-19T13:27:40.083Z,1.58
2023-01-19T13:28:46.105Z,1.60
2023-01-19T13:29:48.073Z,1.61
2023-01-19T13:30:58.834Z,1.60
2023-01-19T13:32:04.098Z,1.59
2023-01-19T13:33:17.172Z,1.83
2023-01-19T13:34:23.109Z,2.00
2023-01-19T13:35:25.466Z,2.06
2023-01-19T13:36:31.774Z,2.07
2023-01-19T13:37:39.458Z,2.05
2023-01-19T13:38:43.826Z,2.04
2023-01-19T13:39:50.122Z,2.01
2023-01-19T13:40:54.589Z,1.98
2023-01-19T13:42:01.750Z,1.94
2023-01-19T13:43:07.881Z,1.91
2023-01-19T13:44:14.896Z,1.88
2023-01-19T13:45:27.472Z,1.86
2023-01-19T13:46:34.097Z,1.84
2023-01-19T13:47:43.080Z,1.82
2023-01-19T13:48:55.875Z,1.80
2023-01-19T13:49:59.725Z,1.80
2023-01-19T13:51:05.797Z,1.79
2023-01-19T13:52:13.142Z,1.78
2023-01-19T13:53:20.545Z,1.76
2023-01-19T13:54:25.951Z,1.76
2023-01-19T13:55:31.921Z,1.76
2023-01-19T13:56:34.860Z,1.75
2023-01-19T13:57:41.019Z,1.73
2023-01-19T13:58:43.930Z,1.72
2023-01-19T13:59:46.814Z,1.72
2023-01-19T14:00:48.930Z,1.71
2023-01-19T14:01:54.250Z,1.72
2023-01-19T14:02:59.265Z,1.70
2023-01-19T14:04:02.307Z,1.71
2023-01-19T14:05:15.571Z,1.71
2023-01-19T14:06:32.850Z,1.71
2023-01-19T14:07:36.057Z,1.71
2023-01-19T14:08:39.225Z,1.71
2023-01-19T14:09:42.234Z,1.71
2023-01-19T14:10:47.266Z,1.71
2023-01-19T14:12:12.912Z,1.70
2023-01-19T14:13:18.854Z,1.70
2023-01-19T14:14:26.620Z,1.71
2023-01-19T14:15:30.152Z,1.68
2023-01-19T14:16:33.157Z,1.68
2023-01-19T14:17:35.329Z,1.66
2023-01-19T14:18:38.477Z,1.67
2023-01-19T14:19:51.318Z,1.66
2023-01-19T14:21:01.180Z,1.65
2023-01-19T14:22:06.464Z,1.65
2023-01-19T14:23:41.958Z,1.64
2023-01-19T14:24:44.977Z,1.64
2023-01-19T14:25:48.269Z,1.64
2023-01-19T14:26:53.910Z,1.63
2023-01-19T14:28:31.352Z,1.66
2023-01-19T14:29:35.744Z,1.68
2023-01-19T14:30:38.734Z,1.70
2023-01-19T14:31:44.789Z,1.70
2023-01-19T14:32:47.845Z,1.70
2023-01-19T14:33:52.558Z,1.70
2023-01-19T14:35:14.247Z,1.70